sensor_id;sensor_type;location;lat;lon;timestamp;pressure;altitude;pressure_sealevel;temperature;humidity
34177;BME280;20450;49.074;9.158;2022-08-21T00:01:39;99593.66;;;17.70;81.76
34177;BME280;20450;49.074;9.158;2022-08-21T00:04:07;99598.81;;;17.80;83.40
34177;BME280;20450;49.074;9.158;2022-08-21T00:06:36;99592.59;;;17.89;84.01
34177;BME280;20450;49.074;9.158;2022-08-21T00:09:06;99591.59;;;17.90;84.46
34177;BME280;20450;49.074;9.158;2022-08-21T00:11:36;99591.44;;;17.91;84.72
34177;BME280;20450;49.074;9.158;2022-08-21T00:14:07;99589.78;;;17.90;84.13
34177;BME280;20450;49.074;9.158;2022-08-21T00:16:36;99590.28;;;17.94;84.66
34177;BME280;20450;49.074;9.158;2022-08-21T00:19:06;99587.81;;;17.92;84.80
34177;BME280;20450;49.074;9.158;2022-08-21T00:21:35;99593.25;;;17.99;85.56
34177;BME280;20450;49.074;9.158;2022-08-21T00:24:04;99589.78;;;17.90;82.12
34177;BME280;20450;49.074;9.158;2022-08-21T00:26:33;99589.31;;;17.95;82.74
34177;BME280;20450;49.074;9.158;2022-08-21T00:29:03;99595.81;;;17.75;78.34
34177;BME280;20450;49.074;9.158;2022-08-21T00:31:30;99583.88;;;17.55;77.86
34177;BME280;20450;49.074;9.158;2022-08-21T00:33:58;99591.97;;;17.36;79.59
34177;BME280;20450;49.074;9.158;2022-08-21T00:36:28;99587.13;;;16.98;80.99
34177;BME280;20450;49.074;9.158;2022-08-21T00:38:55;99597.56;;;17.07;81.13
34177;BME280;20450;49.074;9.158;2022-08-21T00:41:23;99591.53;;;17.15;80.88
34177;BME280;20450;49.074;9.158;2022-08-21T00:44:05;99594.84;;;17.25;80.55
34177;BME280;20450;49.074;9.158;2022-08-21T00:46:35;99594.31;;;17.39;82.10
34177;BME280;20450;49.074;9.158;2022-08-21T00:49:03;99594.00;;;17.42;81.66
34177;BME280;20450;49.074;9.158;2022-08-21T00:51:39;99594.22;;;17.48;83.41
34177;BME280;20450;49.074;9.158;2022-08-21T00:54:11;99590.59;;;17.49;86.96
34177;BME280;20450;49.074;9.158;2022-08-21T00:56:45;99588.00;;;17.57;86.94
34177;BME280;20450;49.074;9.158;2022-08-21T00:59:15;99585.78;;;17.19;84.62
34177;BME280;20450;49.074;9.158;2022-08-21T01:01:45;99580.78;;;16.48;86.18
34177;BME280;20450;49.074;9.158;2022-08-21T01:04:12;99582.78;;;16.19;88.07
34177;BME280;20450;49.074;9.158;2022-08-21T01:06:41;99589.28;;;16.15;87.78
34177;BME280;20450;49.074;9.158;2022-08-21T01:09:09;99585.25;;;16.38;87.17
34177;BME280;20450;49.074;9.158;2022-08-21T01:11:36;99584.22;;;16.31;86.81
34177;BME280;20450;49.074;9.158;2022-08-21T01:14:03;99580.44;;;16.16;86.97
34177;BME280;20450;49.074;9.158;2022-08-21T01:16:30;99583.50;;;16.11;87.70
34177;BME280;20450;49.074;9.158;2022-08-21T01:18:59;99582.91;;;16.35;86.31
34177;BME280;20450;49.074;9.158;2022-08-21T01:21:27;99591.38;;;16.38;86.67
34177;BME280;20450;49.074;9.158;2022-08-21T01:23:56;99586.56;;;16.51;86.36
34177;BME280;20450;49.074;9.158;2022-08-21T01:26:27;99584.91;;;16.50;86.29
34177;BME280;20450;49.074;9.158;2022-08-21T01:29:07;99586.94;;;16.39;86.03
34177;BME280;20450;49.074;9.158;2022-08-21T01:31:41;99581.53;;;16.58;86.24
34177;BME280;20450;49.074;9.158;2022-08-21T01:34:09;99586.13;;;16.38;85.68
34177;BME280;20450;49.074;9.158;2022-08-21T01:36:38;99590.34;;;16.22;87.15
34177;BME280;20450;49.074;9.158;2022-08-21T01:39:05;99584.81;;;16.25;87.17
34177;BME280;20450;49.074;9.158;2022-08-21T01:41:32;99583.69;;;16.45;87.39
34177;BME280;20450;49.074;9.158;2022-08-21T01:44:00;99585.25;;;16.38;90.32
34177;BME280;20450;49.074;9.158;2022-08-21T01:46:27;99581.06;;;16.45;93.01
34177;BME280;20450;49.074;9.158;2022-08-21T01:48:54;99583.84;;;16.43;93.92
34177;BME280;20450;49.074;9.158;2022-08-21T01:51:21;99574.16;;;16.44;93.50
34177;BME280;20450;49.074;9.158;2022-08-21T01:53:49;99578.75;;;16.42;92.78
34177;BME280;20450;49.074;9.158;2022-08-21T01:56:17;99586.03;;;16.48;91.79
34177;BME280;20450;49.074;9.158;2022-08-21T01:58:46;99575.25;;;16.06;91.87
34177;BME280;20450;49.074;9.158;2022-08-21T02:01:14;99576.13;;;15.97;91.07
34177;BME280;20450;49.074;9.158;2022-08-21T02:03:41;99574.59;;;15.95;90.48
34177;BME280;20450;49.074;9.158;2022-08-21T02:06:13;99570.91;;;15.88;90.34
34177;BME280;20450;49.074;9.158;2022-08-21T02:08:41;99571.69;;;15.98;90.00
34177;BME280;20450;49.074;9.158;2022-08-21T02:11:10;99571.69;;;15.98;89.53
34177;BME280;20450;49.074;9.158;2022-08-21T02:13:36;99567.09;;;16.00;88.80
34177;BME280;20450;49.074;9.158;2022-08-21T02:16:04;99567.16;;;15.63;89.93
34177;BME280;20450;49.074;9.158;2022-08-21T02:18:31;99570.72;;;15.45;91.29
34177;BME280;20450;49.074;9.158;2022-08-21T02:20:58;99562.56;;;15.48;92.42
34177;BME280;20450;49.074;9.158;2022-08-21T02:23:25;99561.09;;;15.63;92.77
34177;BME280;20450;49.074;9.158;2022-08-21T02:25:53;99568.22;;;15.80;93.72
34177;BME280;20450;49.074;9.158;2022-08-21T02:28:21;99561.19;;;15.98;92.19
34177;BME280;20450;49.074;9.158;2022-08-21T02:30:49;99561.47;;;15.95;90.34
34177;BME280;20450;49.074;9.158;2022-08-21T02:33:18;99561.31;;;15.79;89.90
34177;BME280;20450;49.074;9.158;2022-08-21T02:35:47;99547.38;;;15.69;89.78
34177;BME280;20450;49.074;9.158;2022-08-21T02:38:18;99560.78;;;15.75;89.93
34177;BME280;20450;49.074;9.158;2022-08-21T02:40:48;99547.66;;;15.66;91.56
34177;BME280;20450;49.074;9.158;2022-08-21T02:43:17;99550.16;;;15.67;90.84
34177;BME280;20450;49.074;9.158;2022-08-21T02:45:47;99552.91;;;15.75;90.34
34177;BME280;20450;49.074;9.158;2022-08-21T02:48:18;99547.72;;;15.83;89.90
34177;BME280;20450;49.074;9.158;2022-08-21T02:50:52;99551.66;;;15.70;90.60
34177;BME280;20450;49.074;9.158;2022-08-21T02:53:22;99559.84;;;15.40;92.78
34177;BME280;20450;49.074;9.158;2022-08-21T02:55:51;99555.41;;;15.31;93.71
34177;BME280;20450;49.074;9.158;2022-08-21T02:58:21;99560.44;;;15.05;96.75
34177;BME280;20450;49.074;9.158;2022-08-21T03:00:53;99561.13;;;15.17;96.06
34177;BME280;20450;49.074;9.158;2022-08-21T03:03:20;99557.97;;;15.13;95.87
34177;BME280;20450;49.074;9.158;2022-08-21T03:05:48;99556.72;;;15.08;96.10
34177;BME280;20450;49.074;9.158;2022-08-21T03:08:16;99552.94;;;15.20;94.69
34177;BME280;20450;49.074;9.158;2022-08-21T03:10:46;99554.31;;;15.33;94.18
34177;BME280;20450;49.074;9.158;2022-08-21T03:13:16;99553.69;;;15.49;94.51
34177;BME280;20450;49.074;9.158;2022-08-21T03:15:45;99556.44;;;15.57;96.69
34177;BME280;20450;49.074;9.158;2022-08-21T03:18:17;99555.72;;;15.64;96.12
34177;BME280;20450;49.074;9.158;2022-08-21T03:20:44;99563.19;;;15.59;97.37
34177;BME280;20450;49.074;9.158;2022-08-21T03:23:12;99554.22;;;15.62;97.61
34177;BME280;20450;49.074;9.158;2022-08-21T03:25:45;99553.91;;;15.65;97.41
34177;BME280;20450;49.074;9.158;2022-08-21T03:28:16;99559.41;;;15.71;97.38
34177;BME280;20450;49.074;9.158;2022-08-21T03:30:46;99564.47;;;15.55;96.91
34177;BME280;20450;49.074;9.158;2022-08-21T03:33:17;99569.34;;;14.95;99.88
34177;BME280;20450;49.074;9.158;2022-08-21T03:35:54;99559.66;;;15.05;96.92
34177;BME280;20450;49.074;9.158;2022-08-21T03:38:25;99565.47;;;14.99;96.55
34177;BME280;20450;49.074;9.158;2022-08-21T03:40:54;99558.31;;;14.82;96.79
34177;BME280;20450;49.074;9.158;2022-08-21T03:43:21;99565.59;;;14.78;95.52
34177;BME280;20450;49.074;9.158;2022-08-21T03:45:48;99558.06;;;14.66;95.77
34177;BME280;20450;49.074;9.158;2022-08-21T03:48:20;99572.41;;;14.62;96.54
34177;BME280;20450;49.074;9.158;2022-08-21T03:50:47;99571.88;;;14.49;96.81
34177;BME280;20450;49.074;9.158;2022-08-21T03:53:15;99577.38;;;14.55;96.88
34177;BME280;20450;49.074;9.158;2022-08-21T03:55:45;99573.66;;;14.67;96.37
34177;BME280;20450;49.074;9.158;2022-08-21T03:58:13;99572.38;;;14.81;95.14
34177;BME280;20450;49.074;9.158;2022-08-21T04:00:43;99579.13;;;14.83;95.52
34177;BME280;20450;49.074;9.158;2022-08-21T04:03:11;99582.31;;;14.77;96.06
34177;BME280;20450;49.074;9.158;2022-08-21T04:05:40;99584.13;;;14.58;97.20
34177;BME280;20450;49.074;9.158;2022-08-21T04:08:07;99584.69;;;14.71;96.91
34177;BME280;20450;49.074;9.158;2022-08-21T04:10:36;99588.69;;;14.56;98.92
34177;BME280;20450;49.074;9.158;2022-08-21T04:13:05;99585.94;;;14.67;97.79
34177;BME280;20450;49.074;9.158;2022-08-21T04:15:35;99589.38;;;14.77;98.15
34177;BME280;20450;49.074;9.158;2022-08-21T04:18:04;99596.16;;;14.79;99.10
34177;BME280;20450;49.074;9.158;2022-08-21T04:20:34;99595.28;;;14.98;99.37
34177;BME280;20450;49.074;9.158;2022-08-21T04:23:03;99593.34;;;15.09;99.27
34177;BME280;20450;49.074;9.158;2022-08-21T04:25:30;99597.47;;;15.12;98.11
34177;BME280;20450;49.074;9.158;2022-08-21T04:27:57;99603.69;;;15.11;98.12
34177;BME280;20450;49.074;9.158;2022-08-21T04:30:25;99605.34;;;15.12;97.83
34177;BME280;20450;49.074;9.158;2022-08-21T04:32:56;99600.53;;;15.07;97.18
34177;BME280;20450;49.074;9.158;2022-08-21T04:35:27;99606.19;;;15.03;97.64
34177;BME280;20450;49.074;9.158;2022-08-21T04:37:54;99612.09;;;15.24;97.34
34177;BME280;20450;49.074;9.158;2022-08-21T04:40:26;99611.28;;;15.33;97.23
34177;BME280;20450;49.074;9.158;2022-08-21T04:42:55;99618.28;;;15.42;97.19
34177;BME280;20450;49.074;9.158;2022-08-21T04:45:26;99622.31;;;15.27;99.00
34177;BME280;20450;49.074;9.158;2022-08-21T04:47:57;99625.31;;;15.51;97.90
34177;BME280;20450;49.074;9.158;2022-08-21T04:50:29;99620.25;;;15.94;96.07
34177;BME280;20450;49.074;9.158;2022-08-21T04:53:03;99618.78;;;16.36;95.33
34177;BME280;20450;49.074;9.158;2022-08-21T04:55:33;99626.75;;;16.79;93.79
34177;BME280;20450;49.074;9.158;2022-08-21T04:58:00;99631.56;;;17.26;91.17
34177;BME280;20450;49.074;9.158;2022-08-21T05:00:27;99633.69;;;17.74;88.54
34177;BME280;20450;49.074;9.158;2022-08-21T05:02:55;99642.78;;;18.13;87.31
34177;BME280;20450;49.074;9.158;2022-08-21T05:05:24;99639.44;;;18.52;84.23
34177;BME280;20450;49.074;9.158;2022-08-21T05:07:53;99636.34;;;18.97;81.96
34177;BME280;20450;49.074;9.158;2022-08-21T05:10:20;99641.94;;;19.50;79.92
34177;BME280;20450;49.074;9.158;2022-08-21T05:12:49;99650.06;;;19.95;77.11
34177;BME280;20450;49.074;9.158;2022-08-21T05:15:16;99650.16;;;19.63;77.39
34177;BME280;20450;49.074;9.158;2022-08-21T05:17:42;99646.16;;;19.83;76.27
34177;BME280;20450;49.074;9.158;2022-08-21T05:20:19;99652.16;;;20.46;75.11
34177;BME280;20450;49.074;9.158;2022-08-21T05:22:46;99655.19;;;20.88;72.28
34177;BME280;20450;49.074;9.158;2022-08-21T05:25:13;99650.09;;;21.09;70.25
34177;BME280;20450;49.074;9.158;2022-08-21T05:27:42;99659.00;;;21.30;69.73
34177;BME280;20450;49.074;9.158;2022-08-21T05:30:11;99651.84;;;20.94;70.60
34177;BME280;20450;49.074;9.158;2022-08-21T05:32:38;99669.50;;;21.75;67.44
34177;BME280;20450;49.074;9.158;2022-08-21T05:35:07;99669.00;;;22.30;66.43
34177;BME280;20450;49.074;9.158;2022-08-21T05:37:35;99669.59;;;22.25;64.65
34177;BME280;20450;49.074;9.158;2022-08-21T05:40:04;99664.81;;;22.71;63.94
34177;BME280;20450;49.074;9.158;2022-08-21T05:42:49;99668.81;;;23.23;62.49
34177;BME280;20450;49.074;9.158;2022-08-21T05:45:23;99667.63;;;23.87;60.34
34177;BME280;20450;49.074;9.158;2022-08-21T05:48:11;99673.34;;;24.59;57.08
34177;BME280;20450;49.074;9.158;2022-08-21T05:50:39;99671.19;;;23.60;60.66
34177;BME280;20450;49.074;9.158;2022-08-21T05:53:08;99664.25;;;24.40;57.40
34177;BME280;20450;49.074;9.158;2022-08-21T05:55:36;99668.78;;;25.26;55.53
34177;BME280;20450;49.074;9.158;2022-08-21T05:58:11;99668.50;;;25.86;53.28
34177;BME280;20450;49.074;9.158;2022-08-21T06:00:40;99667.28;;;25.82;53.88
34177;BME280;20450;49.074;9.158;2022-08-21T06:03:11;99673.19;;;26.67;51.04
34177;BME280;20450;49.074;9.158;2022-08-21T06:05:38;99666.88;;;26.86;50.45
34177;BME280;20450;49.074;9.158;2022-08-21T06:08:05;99663.59;;;24.32;56.89
34177;BME280;20450;49.074;9.158;2022-08-21T06:10:32;99667.34;;;25.49;54.05
34177;BME280;20450;49.074;9.158;2022-08-21T06:12:59;99657.13;;;26.67;51.94
34177;BME280;20450;49.074;9.158;2022-08-21T06:15:27;99663.53;;;27.28;49.85
34177;BME280;20450;49.074;9.158;2022-08-21T06:17:55;99657.53;;;28.29;47.48
34177;BME280;20450;49.074;9.158;2022-08-21T06:20:22;99663.06;;;28.34;47.44
34177;BME280;20450;49.074;9.158;2022-08-21T06:22:50;99666.72;;;26.37;50.74
34177;BME280;20450;49.074;9.158;2022-08-21T06:25:17;99653.06;;;24.11;55.98
34177;BME280;20450;49.074;9.158;2022-08-21T06:27:44;99660.59;;;23.46;58.41
34177;BME280;20450;49.074;9.158;2022-08-21T06:30:11;99649.78;;;24.15;56.80
34177;BME280;20450;49.074;9.158;2022-08-21T06:32:39;99655.97;;;22.85;59.99
34177;BME280;20450;49.074;9.158;2022-08-21T06:35:09;99658.53;;;22.43;62.60
34177;BME280;20450;49.074;9.158;2022-08-21T06:37:36;99658.78;;;23.19;60.32
34177;BME280;20450;49.074;9.158;2022-08-21T06:40:05;99654.03;;;24.44;56.82
34177;BME280;20450;49.074;9.158;2022-08-21T06:42:38;99655.94;;;23.48;58.88
34177;BME280;20450;49.074;9.158;2022-08-21T06:45:08;99658.47;;;25.68;53.10
34177;BME280;20450;49.074;9.158;2022-08-21T06:47:36;99645.59;;;25.26;52.93
34177;BME280;20450;49.074;9.158;2022-08-21T06:50:04;99653.81;;;25.31;53.80
34177;BME280;20450;49.074;9.158;2022-08-21T06:52:33;99647.53;;;27.21;49.10
34177;BME280;20450;49.074;9.158;2022-08-21T06:55:00;99653.09;;;28.41;45.44
34177;BME280;20450;49.074;9.158;2022-08-21T06:57:27;99660.69;;;29.67;42.79
34177;BME280;20450;49.074;9.158;2022-08-21T06:59:54;99661.63;;;28.97;43.53
34177;BME280;20450;49.074;9.158;2022-08-21T07:02:21;99666.59;;;29.23;42.66
34177;BME280;20450;49.074;9.158;2022-08-21T07:04:48;99662.72;;;30.62;38.63
34177;BME280;20450;49.074;9.158;2022-08-21T07:07:15;99655.94;;;30.87;38.01
34177;BME280;20450;49.074;9.158;2022-08-21T07:09:43;99642.19;;;31.66;36.71
34177;BME280;20450;49.074;9.158;2022-08-21T07:12:11;99659.44;;;32.68;35.96
34177;BME280;20450;49.074;9.158;2022-08-21T07:14:39;99657.56;;;32.95;34.63
34177;BME280;20450;49.074;9.158;2022-08-21T07:17:07;99660.81;;;31.68;36.23
34177;BME280;20450;49.074;9.158;2022-08-21T07:19:34;99655.41;;;31.02;37.73
34177;BME280;20450;49.074;9.158;2022-08-21T07:22:02;99650.97;;;31.95;36.58
34177;BME280;20450;49.074;9.158;2022-08-21T07:24:29;99659.66;;;31.64;36.26
34177;BME280;20450;49.074;9.158;2022-08-21T07:26:57;99665.47;;;32.53;35.29
34177;BME280;20450;49.074;9.158;2022-08-21T07:29:24;99670.53;;;33.24;34.59
34177;BME280;20450;49.074;9.158;2022-08-21T07:31:51;99668.03;;;33.18;34.46
34177;BME280;20450;49.074;9.158;2022-08-21T07:34:18;99659.44;;;33.52;34.08
34177;BME280;20450;49.074;9.158;2022-08-21T07:36:45;99660.19;;;33.79;33.41
34177;BME280;20450;49.074;9.158;2022-08-21T07:39:12;99655.38;;;33.50;34.03
34177;BME280;20450;49.074;9.158;2022-08-21T07:41:39;99663.34;;;33.71;33.82
34177;BME280;20450;49.074;9.158;2022-08-21T07:44:07;99658.28;;;34.26;33.10
34177;BME280;20450;49.074;9.158;2022-08-21T07:46:38;99659.06;;;34.27;33.60
34177;BME280;20450;49.074;9.158;2022-08-21T07:49:05;99659.59;;;34.24;32.36
34177;BME280;20450;49.074;9.158;2022-08-21T07:51:32;99651.59;;;34.54;32.08
34177;BME280;20450;49.074;9.158;2022-08-21T07:54:00;99653.78;;;34.72;32.04
34177;BME280;20450;49.074;9.158;2022-08-21T07:56:30;99657.00;;;34.54;32.65
34177;BME280;20450;49.074;9.158;2022-08-21T07:58:57;99641.78;;;31.58;37.09
34177;BME280;20450;49.074;9.158;2022-08-21T08:01:26;99639.72;;;30.26;39.16
34177;BME280;20450;49.074;9.158;2022-08-21T08:03:53;99629.09;;;29.97;40.74
34177;BME280;20450;49.074;9.158;2022-08-21T08:06:20;99625.94;;;28.96;42.64
34177;BME280;20450;49.074;9.158;2022-08-21T08:08:47;99622.97;;;29.62;42.24
34177;BME280;20450;49.074;9.158;2022-08-21T08:11:14;99618.88;;;30.61;40.59
34177;BME280;20450;49.074;9.158;2022-08-21T08:13:43;99629.59;;;31.88;37.76
34177;BME280;20450;49.074;9.158;2022-08-21T08:16:12;99629.16;;;33.19;35.07
34177;BME280;20450;49.074;9.158;2022-08-21T08:18:41;99628.63;;;33.22;34.96
34177;BME280;20450;49.074;9.158;2022-08-21T08:21:09;99622.25;;;31.84;37.28
34177;BME280;20450;49.074;9.158;2022-08-21T08:23:37;99624.19;;;30.45;39.73
34177;BME280;20450;49.074;9.158;2022-08-21T08:26:04;99615.06;;;30.18;40.69
34177;BME280;20450;49.074;9.158;2022-08-21T08:28:32;99617.84;;;30.23;40.21
34177;BME280;20450;49.074;9.158;2022-08-21T08:31:00;99599.25;;;29.59;41.13
34177;BME280;20450;49.074;9.158;2022-08-21T08:33:27;99604.16;;;29.39;42.40
34177;BME280;20450;49.074;9.158;2022-08-21T08:35:56;99605.16;;;29.03;42.80
34177;BME280;20450;49.074;9.158;2022-08-21T08:38:24;99610.34;;;29.62;42.08
34177;BME280;20450;49.074;9.158;2022-08-21T08:40:55;99598.03;;;30.01;40.94
34177;BME280;20450;49.074;9.158;2022-08-21T08:43:32;99598.53;;;29.52;41.82
34177;BME280;20450;49.074;9.158;2022-08-21T08:46:03;99590.56;;;28.58;43.74
34177;BME280;20450;49.074;9.158;2022-08-21T08:48:43;99584.38;;;28.28;44.94
34177;BME280;20450;49.074;9.158;2022-08-21T08:51:25;99579.16;;;27.86;45.76
34177;BME280;20450;49.074;9.158;2022-08-21T08:54:03;99585.69;;;28.55;44.85
34177;BME280;20450;49.074;9.158;2022-08-21T08:56:35;99579.34;;;27.66;45.80
34177;BME280;20450;49.074;9.158;2022-08-21T08:59:08;99568.84;;;27.65;46.03
34177;BME280;20450;49.074;9.158;2022-08-21T09:01:41;99576.16;;;27.94;45.73
34177;BME280;20450;49.074;9.158;2022-08-21T09:04:09;99581.69;;;27.38;46.73
34177;BME280;20450;49.074;9.158;2022-08-21T09:06:50;99574.72;;;27.13;46.75
34177;BME280;20450;49.074;9.158;2022-08-21T09:09:36;99577.59;;;26.87;48.49
34177;BME280;20450;49.074;9.158;2022-08-21T09:12:19;99575.59;;;27.07;47.15
34177;BME280;20450;49.074;9.158;2022-08-21T09:15:02;99564.69;;;27.51;46.41
34177;BME280;20450;49.074;9.158;2022-08-21T09:17:53;99575.47;;;27.44;47.39
34177;BME280;20450;49.074;9.158;2022-08-21T09:20:48;99573.94;;;27.73;48.04
34177;BME280;20450;49.074;9.158;2022-08-21T09:23:35;99574.56;;;28.22;45.69
34177;BME280;20450;49.074;9.158;2022-08-21T09:26:14;99568.34;;;28.10;44.65
34177;BME280;20450;49.074;9.158;2022-08-21T09:28:43;99563.13;;;28.15;44.61
34177;BME280;20450;49.074;9.158;2022-08-21T09:31:25;99555.88;;;28.16;44.46
34177;BME280;20450;49.074;9.158;2022-08-21T09:33:58;99555.75;;;28.11;44.00
34177;BME280;20450;49.074;9.158;2022-08-21T09:36:33;99563.22;;;28.91;43.11
34177;BME280;20450;49.074;9.158;2022-08-21T09:39:08;99560.91;;;28.83;42.44
34177;BME280;20450;49.074;9.158;2022-08-21T09:41:37;99557.50;;;28.76;42.46
34177;BME280;20450;49.074;9.158;2022-08-21T09:44:07;99553.25;;;28.27;43.03
34177;BME280;20450;49.074;9.158;2022-08-21T09:46:35;99548.31;;;28.42;43.85
34177;BME280;20450;49.074;9.158;2022-08-21T09:49:03;99551.34;;;28.87;42.70
34177;BME280;20450;49.074;9.158;2022-08-21T09:51:49;99554.53;;;29.30;39.42
34177;BME280;20450;49.074;9.158;2022-08-21T09:54:26;99544.59;;;30.04;38.87
34177;BME280;20450;49.074;9.158;2022-08-21T09:56:59;99547.31;;;30.77;37.43
34177;BME280;20450;49.074;9.158;2022-08-21T09:59:33;99544.94;;;30.64;37.46
34177;BME280;20450;49.074;9.158;2022-08-21T10:02:24;99545.78;;;30.97;36.27
34177;BME280;20450;49.074;9.158;2022-08-21T10:04:57;99536.97;;;30.69;36.86
34177;BME280;20450;49.074;9.158;2022-08-21T10:07:37;99537.13;;;30.34;37.64
34177;BME280;20450;49.074;9.158;2022-08-21T10:10:13;99525.72;;;29.02;39.67
34177;BME280;20450;49.074;9.158;2022-08-21T10:12:49;99532.66;;;28.10;42.03
34177;BME280;20450;49.074;9.158;2022-08-21T10:15:34;99523.69;;;28.04;41.51
34177;BME280;20450;49.074;9.158;2022-08-21T10:18:13;99526.75;;;27.54;42.28
34177;BME280;20450;49.074;9.158;2022-08-21T10:20:56;99519.28;;;28.10;40.75
34177;BME280;20450;49.074;9.158;2022-08-21T10:23:40;99525.34;;;29.56;39.93
34177;BME280;20450;49.074;9.158;2022-08-21T10:26:28;99525.88;;;29.70;38.66
34177;BME280;20450;49.074;9.158;2022-08-21T10:29:14;99516.78;;;29.71;38.56
34177;BME280;20450;49.074;9.158;2022-08-21T10:31:55;99524.91;;;30.88;36.67
34177;BME280;20450;49.074;9.158;2022-08-21T10:34:40;99519.78;;;31.79;34.46
34177;BME280;20450;49.074;9.158;2022-08-21T10:37:24;99512.44;;;31.74;34.68
34177;BME280;20450;49.074;9.158;2022-08-21T10:40:11;99511.81;;;30.47;36.27
34177;BME280;20450;49.074;9.158;2022-08-21T10:42:59;99516.53;;;29.84;37.44
34177;BME280;20450;49.074;9.158;2022-08-21T10:45:49;99507.25;;;29.29;38.26
34177;BME280;20450;49.074;9.158;2022-08-21T10:48:29;99499.66;;;29.37;37.71
34177;BME280;20450;49.074;9.158;2022-08-21T10:51:07;99498.41;;;30.35;35.84
34177;BME280;20450;49.074;9.158;2022-08-21T10:53:57;99496.69;;;30.90;35.85
34177;BME280;20450;49.074;9.158;2022-08-21T10:56:33;99499.47;;;30.18;37.12
34177;BME280;20450;49.074;9.158;2022-08-21T10:59:25;99495.28;;;30.88;35.39
34177;BME280;20450;49.074;9.158;2022-08-21T11:02:12;99495.06;;;32.13;33.94
34177;BME280;20450;49.074;9.158;2022-08-21T11:04:50;99494.47;;;32.64;32.71
34177;BME280;20450;49.074;9.158;2022-08-21T11:07:27;99512.41;;;33.53;31.88
34177;BME280;20450;49.074;9.158;2022-08-21T11:10:03;99494.47;;;32.96;32.33
34177;BME280;20450;49.074;9.158;2022-08-21T11:12:41;99497.03;;;33.12;31.99
34177;BME280;20450;49.074;9.158;2022-08-21T11:15:27;99488.56;;;32.99;31.66
34177;BME280;20450;49.074;9.158;2022-08-21T11:18:09;99490.34;;;32.52;32.03
34177;BME280;20450;49.074;9.158;2022-08-21T11:20:59;99492.47;;;33.69;31.38
34177;BME280;20450;49.074;9.158;2022-08-21T11:23:38;99486.22;;;31.48;33.59
34177;BME280;20450;49.074;9.158;2022-08-21T11:26:13;99479.47;;;29.86;37.18
34177;BME280;20450;49.074;9.158;2022-08-21T11:28:52;99475.06;;;30.08;36.36
34177;BME280;20450;49.074;9.158;2022-08-21T11:31:39;99468.13;;;29.56;36.58
34177;BME280;20450;49.074;9.158;2022-08-21T11:34:29;99470.56;;;29.85;36.86
34177;BME280;20450;49.074;9.158;2022-08-21T11:37:17;99472.69;;;30.39;35.46
34177;BME280;20450;49.074;9.158;2022-08-21T11:40:02;99463.78;;;31.86;33.82
34177;BME280;20450;49.074;9.158;2022-08-21T11:42:42;99471.41;;;33.20;31.55
34177;BME280;20450;49.074;9.158;2022-08-21T11:45:25;99471.25;;;33.36;31.41
34177;BME280;20450;49.074;9.158;2022-08-21T11:48:07;99463.81;;;33.63;31.19
34177;BME280;20450;49.074;9.158;2022-08-21T11:50:44;99464.75;;;32.54;32.47
34177;BME280;20450;49.074;9.158;2022-08-21T11:53:18;99455.75;;;31.91;33.37
34177;BME280;20450;49.074;9.158;2022-08-21T11:55:55;99457.03;;;30.53;35.51
34177;BME280;20450;49.074;9.158;2022-08-21T11:58:31;99460.66;;;29.86;35.74
34177;BME280;20450;49.074;9.158;2022-08-21T12:01:05;99449.84;;;29.97;35.95
34177;BME280;20450;49.074;9.158;2022-08-21T12:03:39;99453.69;;;30.13;35.69
34177;BME280;20450;49.074;9.158;2022-08-21T12:06:11;99454.88;;;30.22;36.49
34177;BME280;20450;49.074;9.158;2022-08-21T12:08:58;99446.50;;;30.18;35.73
34177;BME280;20450;49.074;9.158;2022-08-21T12:11:27;99449.69;;;30.04;36.16
34177;BME280;20450;49.074;9.158;2022-08-21T12:13:59;99444.28;;;29.48;38.19
34177;BME280;20450;49.074;9.158;2022-08-21T12:16:40;99436.94;;;29.04;37.66
34177;BME280;20450;49.074;9.158;2022-08-21T12:19:11;99435.41;;;28.50;36.43
34177;BME280;20450;49.074;9.158;2022-08-21T12:21:49;99437.97;;;28.68;37.18
34177;BME280;20450;49.074;9.158;2022-08-21T12:24:32;99423.56;;;27.40;37.22
34177;BME280;20450;49.074;9.158;2022-08-21T12:27:18;99418.09;;;27.17;37.31
34177;BME280;20450;49.074;9.158;2022-08-21T12:29:49;99424.78;;;27.01;39.10
34177;BME280;20450;49.074;9.158;2022-08-21T12:32:27;99423.41;;;26.99;39.84
34177;BME280;20450;49.074;9.158;2022-08-21T12:35:01;99419.06;;;26.98;39.07
34177;BME280;20450;49.074;9.158;2022-08-21T12:37:44;99410.47;;;27.32;39.86
34177;BME280;20450;49.074;9.158;2022-08-21T12:40:21;99408.47;;;27.27;38.55
34177;BME280;20450;49.074;9.158;2022-08-21T12:42:53;99401.34;;;27.03;38.71
34177;BME280;20450;49.074;9.158;2022-08-21T12:45:28;99409.56;;;27.56;40.04
34177;BME280;20450;49.074;9.158;2022-08-21T12:48:00;99404.25;;;27.97;38.50
34177;BME280;20450;49.074;9.158;2022-08-21T12:50:36;99405.00;;;28.27;37.54
34177;BME280;20450;49.074;9.158;2022-08-21T12:53:17;99405.56;;;28.47;36.31
34177;BME280;20450;49.074;9.158;2022-08-21T12:55:52;99397.84;;;27.39;38.15
34177;BME280;20450;49.074;9.158;2022-08-21T12:58:21;99393.53;;;27.02;39.48
34177;BME280;20450;49.074;9.158;2022-08-21T13:00:50;99393.06;;;26.87;39.15
34177;BME280;20450;49.074;9.158;2022-08-21T13:03:21;99391.81;;;27.07;39.24
34177;BME280;20450;49.074;9.158;2022-08-21T13:05:51;99398.56;;;27.46;39.61
34177;BME280;20450;49.074;9.158;2022-08-21T13:08:20;99402.81;;;27.83;39.89
34177;BME280;20450;49.074;9.158;2022-08-21T13:10:56;99403.72;;;28.18;37.99
34177;BME280;20450;49.074;9.158;2022-08-21T13:13:40;99401.47;;;28.44;37.26
34177;BME280;20450;49.074;9.158;2022-08-21T13:16:20;99407.28;;;28.64;35.76
34177;BME280;20450;49.074;9.158;2022-08-21T13:18:55;99402.59;;;28.37;34.78
34177;BME280;20450;49.074;9.158;2022-08-21T13:21:29;99407.66;;;28.56;36.25
34177;BME280;20450;49.074;9.158;2022-08-21T13:24:15;99404.34;;;28.77;35.02
34177;BME280;20450;49.074;9.158;2022-08-21T13:27:18;99399.38;;;28.81;34.78